Time;durP1;ratioP1;P1;durP2;ratioP2;P2;SDS_P1;SDS_P2;PMS_P1;PMS_P2;Temp;Humidity;BMP_temperature;BMP_pressure;BME280_temperature;BME280_humidity;BME280_pressure;Samples;Min_cycle;Max_cycle;Signal;HPM_P1;HPM_P2
2021/10/05 00:00:43;;;;;;;;;;;13.50;99.90;;;;;;1871803;76;20116;-71
2021/10/05 00:03:10;;;;;;;;;;;13.50;99.90;;;;;;1868383;76;20443;-70
2021/10/05 00:05:37;;;;;;;;;;;13.50;99.90;;;;;;1869941;76;20269;-72
2021/10/05 00:08:04;;;;;;;;;;;13.60;99.90;;;;;;1871695;76;20469;-71
2021/10/05 00:10:31;;;;;;;;;;;13.50;99.90;;;;;;1869903;76;20183;-71
2021/10/05 00:12:58;;;;;;;;;;;13.50;99.90;;;;;;1871104;76;20187;-71
2021/10/05 00:15:25;;;;;;;;;;;13.50;99.90;;;;;;1871312;76;20212;-70
2021/10/05 00:17:52;;;;;;;;;;;13.40;99.90;;;;;;1869665;76;20208;-72
2021/10/05 00:20:18;;;;;;;;;;;13.30;99.90;;;;;;1871148;76;20504;-71
2021/10/05 00:22:45;;;;;;;;;;;13.30;99.90;;;;;;1869482;76;20182;-72
2021/10/05 00:25:12;;;;;;;;;;;13.30;99.90;;;;;;1868184;76;20206;-72
2021/10/05 00:27:39;;;;;;;;;;;13.20;99.90;;;;;;1868242;76;20191;-72
2021/10/05 00:30:07;;;;;;;;;;;13.10;99.90;;;;;;1873542;76;20120;-71
2021/10/05 00:32:34;;;;;;;;;;;13.10;99.90;;;;;;1874151;76;20183;-72
2021/10/05 00:35:00;;;;;;;;;;;12.90;99.90;;;;;;1872137;76;20443;-72
2021/10/05 00:37:27;;;;;;;;;;;12.90;99.90;;;;;;1871004;76;20286;-72
2021/10/05 00:39:54;;;;;;;;;;;12.90;99.90;;;;;;1870657;76;20465;-72
2021/10/05 00:42:21;;;;;;;;;;;12.80;99.90;;;;;;1868388;76;20165;-71
2021/10/05 00:44:49;;;;;;;;;;;12.80;99.90;;;;;;1873441;76;20460;-71
2021/10/05 00:47:16;;;;;;;;;;;12.80;99.90;;;;;;1871005;76;20207;-71
2021/10/05 00:49:44;;;;;;;;;;;12.80;99.90;;;;;;1867103;76;20148;-70
2021/10/05 00:52:12;;;;;;;;;;;12.80;99.90;;;;;;1871978;76;20216;-71
2021/10/05 00:54:40;;;;;;;;;;;12.90;99.90;;;;;;1870111;76;20212;-71
2021/10/05 00:57:07;;;;;;;;;;;12.90;99.90;;;;;;1871483;75;20257;-70
2021/10/05 00:59:34;;;;;;;;;;;12.90;99.90;;;;;;1870423;73;20175;-71
2021/10/05 01:02:02;;;;;;;;;;;12.90;99.90;;;;;;1880647;75;20158;-72
2021/10/05 01:04:29;;;;;;;;;;;12.80;99.90;;;;;;1877274;75;20185;-72
2021/10/05 01:06:57;;;;;;;;;;;12.70;99.90;;;;;;1872678;75;20167;-72
2021/10/05 01:09:25;;;;;;;;;;;12.70;99.90;;;;;;1870483;75;20238;-71
2021/10/05 01:11:51;;;;;;;;;;;12.60;99.90;;;;;;1873089;75;20230;-70
2021/10/05 01:14:18;;;;;;;;;;;12.60;99.90;;;;;;1868082;75;20250;-71
2021/10/05 01:16:45;;;;;;;;;;;12.50;99.90;;;;;;1867351;75;20174;-71
2021/10/05 01:19:12;;;;;;;;;;;12.70;99.90;;;;;;1868517;75;20124;-71
2021/10/05 01:21:39;;;;;;;;;;;12.80;99.90;;;;;;1873048;75;20473;-71
2021/10/05 01:24:13;;;;;;;;;;;12.70;99.90;;;;;;1870898;75;20162;-71
2021/10/05 01:26:40;;;;;;;;;;;12.80;99.90;;;;;;1868154;75;20122;-71
2021/10/05 01:29:09;;;;;;;;;;;12.70;99.90;;;;;;1871238;75;20228;-73
2021/10/05 01:31:39;;;;;;;;;;;12.60;99.90;;;;;;1871433;75;20222;-73
2021/10/05 01:34:06;;;;;;;;;;;12.60;99.90;;;;;;1873081;75;20232;-73
2021/10/05 01:36:34;;;;;;;;;;;12.50;99.90;;;;;;1874227;75;20241;-73
2021/10/05 01:39:03;;;;;;;;;;;12.50;99.90;;;;;;1876297;75;20487;-72
2021/10/05 01:41:30;;;;;;;;;;;12.60;99.90;;;;;;1874586;75;20213;-72
2021/10/05 01:43:56;;;;;;;;;;;12.60;99.90;;;;;;1877084;75;20124;-72
2021/10/05 01:46:23;;;;;;;;;;;12.60;99.90;;;;;;1870853;75;20182;-72
2021/10/05 01:48:50;;;;;;;;;;;12.60;99.90;;;;;;1872134;75;20170;-71
2021/10/05 01:51:17;;;;;;;;;;;12.60;99.90;;;;;;1871606;75;20576;-71
2021/10/05 01:53:44;;;;;;;;;;;12.60;99.90;;;;;;1869065;75;20203;-71
2021/10/05 01:56:11;;;;;;;;;;;12.50;99.90;;;;;;1871795;75;20183;-71
2021/10/05 01:58:38;;;;;;;;;;;12.50;99.90;;;;;;1871173;75;20633;-72
2021/10/05 02:01:05;;;;;;;;;;;12.60;99.90;;;;;;1872007;75;20151;-73
2021/10/05 02:03:31;;;;;;;;;;;12.60;99.90;;;;;;1870178;75;20175;-72
2021/10/05 02:05:58;;;;;;;;;;;12.60;99.90;;;;;;1875208;75;20169;-72
2021/10/05 02:08:25;;;;;;;;;;;12.60;99.90;;;;;;1872153;75;20239;-72
2021/10/05 02:10:52;;;;;;;;;;;12.60;99.90;;;;;;1872881;75;20255;-72
2021/10/05 02:13:19;;;;;;;;;;;12.60;99.90;;;;;;1876255;75;20376;-72
2021/10/05 02:15:45;;;;;;;;;;;12.50;99.90;;;;;;1875390;75;20167;-72
2021/10/05 02:18:12;;;;;;;;;;;12.50;99.90;;;;;;1872454;75;20210;-72
2021/10/05 02:20:39;;;;;;;;;;;12.50;99.90;;;;;;1874389;75;20473;-71
2021/10/05 02:23:06;;;;;;;;;;;12.50;99.90;;;;;;1875864;75;20174;-72
2021/10/05 02:25:33;;;;;;;;;;;12.60;99.90;;;;;;1870360;75;20244;-71
2021/10/05 02:28:00;;;;;;;;;;;12.50;99.90;;;;;;1870485;75;20148;-71
2021/10/05 02:30:26;;;;;;;;;;;12.50;99.90;;;;;;1869961;75;21246;-72
2021/10/05 02:32:53;;;;;;;;;;;12.50;99.90;;;;;;1869334;75;20123;-72
2021/10/05 02:35:20;;;;;;;;;;;12.40;99.90;;;;;;1869653;75;20479;-72
2021/10/05 02:37:47;;;;;;;;;;;12.40;99.90;;;;;;1872630;75;20210;-73
2021/10/05 02:40:14;;;;;;;;;;;12.40;99.90;;;;;;1869080;75;20430;-72
2021/10/05 02:42:40;;;;;;;;;;;12.30;99.90;;;;;;1873167;75;20229;-72
2021/10/05 02:45:09;;;;;;;;;;;12.30;99.90;;;;;;1874654;75;20228;-72
2021/10/05 02:47:36;;;;;;;;;;;12.30;99.90;;;;;;1878094;75;20187;-73
2021/10/05 02:50:03;;;;;;;;;;;12.30;99.90;;;;;;1873376;75;20213;-72
2021/10/05 02:52:30;;;;;;;;;;;12.30;99.90;;;;;;1877126;75;20159;-72
2021/10/05 02:54:57;;;;;;;;;;;12.30;99.90;;;;;;1875035;75;20183;-73
2021/10/05 02:57:23;;;;;;;;;;;12.30;99.90;;;;;;1874814;75;20215;-72
2021/10/05 02:59:50;;;;;;;;;;;12.30;99.90;;;;;;1880444;75;20157;-72
2021/10/05 03:02:17;;;;;;;;;;;12.30;99.90;;;;;;1872331;75;20471;-72
2021/10/05 03:04:44;;;;;;;;;;;12.20;99.90;;;;;;1873537;75;20136;-72
2021/10/05 03:07:11;;;;;;;;;;;12.30;99.90;;;;;;1875376;75;20183;-72
2021/10/05 03:09:38;;;;;;;;;;;12.30;99.90;;;;;;1872809;75;20277;-73
2021/10/05 03:12:04;;;;;;;;;;;12.20;99.90;;;;;;1874083;75;20145;-73
2021/10/05 03:14:31;;;;;;;;;;;12.30;99.90;;;;;;1873796;75;20217;-72
2021/10/05 03:16:58;;;;;;;;;;;12.20;99.90;;;;;;1868620;75;20210;-72
2021/10/05 03:19:25;;;;;;;;;;;12.20;99.90;;;;;;1871460;75;20169;-72
2021/10/05 03:21:52;;;;;;;;;;;12.20;99.90;;;;;;1871971;75;20169;-72
2021/10/05 03:24:19;;;;;;;;;;;12.20;99.90;;;;;;1874085;75;20160;-72
2021/10/05 03:26:46;;;;;;;;;;;12.10;99.90;;;;;;1872334;75;20217;-72
2021/10/05 03:29:13;;;;;;;;;;;12.10;99.90;;;;;;1870969;75;20121;-72
2021/10/05 03:31:40;;;;;;;;;;;12.10;99.90;;;;;;1869790;75;20250;-72
2021/10/05 03:34:06;;;;;;;;;;;12.20;99.90;;;;;;1872537;75;20131;-72
2021/10/05 03:36:33;;;;;;;;;;;12.20;99.90;;;;;;1873140;75;20296;-72
2021/10/05 03:39:00;;;;;;;;;;;12.20;99.90;;;;;;1869698;75;20524;-72
2021/10/05 03:41:30;;;;;;;;;;;12.20;99.90;;;;;;1870662;75;20199;-72
2021/10/05 03:43:55;;;;;;;;;;;12.20;99.90;;;;;;1869386;75;20169;-72
2021/10/05 03:46:22;;;;;;;;;;;12.20;99.90;;;;;;1867386;75;20181;-71
2021/10/05 03:48:49;;;;;;;;;;;12.20;99.90;;;;;;1874324;75;20251;-72
2021/10/05 03:51:16;;;;;;;;;;;12.30;99.90;;;;;;1873096;75;20219;-71
2021/10/05 03:53:42;;;;;;;;;;;12.20;99.90;;;;;;1872017;75;20178;-71
2021/10/05 03:56:09;;;;;;;;;;;12.20;99.90;;;;;;1871789;75;20114;-72
2021/10/05 03:58:36;;;;;;;;;;;12.10;99.90;;;;;;1875170;75;20160;-72
2021/10/05 04:01:04;;;;;;;;;;;12.20;99.90;;;;;;1873659;75;20163;-72
2021/10/05 04:03:31;;;;;;;;;;;12.20;99.90;;;;;;1876472;75;20181;-71
2021/10/05 04:05:58;;;;;;;;;;;12.20;99.90;;;;;;1873368;75;20171;-71
2021/10/05 04:08:25;;;;;;;;;;;12.10;99.90;;;;;;1873741;75;20176;-72
2021/10/05 04:10:52;;;;;;;;;;;12.00;99.90;;;;;;1878390;75;20265;-72
2021/10/05 04:13:19;;;;;;;;;;;11.80;99.90;;;;;;1871667;75;20177;-72
2021/10/05 04:15:46;;;;;;;;;;;12.00;99.90;;;;;;1872285;75;20230;-73
2021/10/05 04:18:12;;;;;;;;;;;12.00;99.90;;;;;;1875513;75;20215;-74
2021/10/05 04:20:39;;;;;;;;;;;12.00;99.90;;;;;;1875469;75;20227;-73
2021/10/05 04:23:06;;;;;;;;;;;12.00;99.90;;;;;;1873717;75;20423;-73
2021/10/05 04:25:33;;;;;;;;;;;11.90;99.90;;;;;;1874839;75;20228;-73
2021/10/05 04:28:00;;;;;;;;;;;12.00;99.90;;;;;;1876373;75;20112;-73
2021/10/05 04:30:27;;;;;;;;;;;11.90;99.90;;;;;;1870704;75;20207;-73
2021/10/05 04:32:53;;;;;;;;;;;11.80;99.90;;;;;;1870474;75;20261;-72
2021/10/05 04:35:20;;;;;;;;;;;11.80;99.90;;;;;;1873408;75;20130;-72
2021/10/05 04:37:47;;;;;;;;;;;11.80;99.90;;;;;;1874406;75;20171;-72
2021/10/05 04:40:14;;;;;;;;;;;11.80;99.90;;;;;;1875197;73;20124;-73
2021/10/05 04:42:41;;;;;;;;;;;11.90;99.90;;;;;;1879521;75;20182;-71
2021/10/05 04:45:08;;;;;;;;;;;11.80;99.90;;;;;;1876616;75;20210;-72
2021/10/05 04:47:38;;;;;;;;;;;11.90;99.90;;;;;;1883192;75;20221;-72
2021/10/05 04:50:05;;;;;;;;;;;11.90;99.90;;;;;;1879358;75;20218;-72
2021/10/05 04:52:32;;;;;;;;;;;11.90;99.90;;;;;;1872789;75;20568;-72
2021/10/05 04:54:59;;;;;;;;;;;11.90;99.90;;;;;;1864871;75;20165;-72
2021/10/05 04:57:26;;;;;;;;;;;12.00;99.90;;;;;;1878148;73;20756;-72
2021/10/05 04:59:53;;;;;;;;;;;11.90;99.90;;;;;;1878607;74;20193;-72
2021/10/05 05:02:20;;;;;;;;;;;12.00;99.90;;;;;;1872627;75;20182;-72
2021/10/05 05:04:46;;;;;;;;;;;11.70;99.90;;;;;;1887255;75;20178;-72
2021/10/05 05:07:13;;;;;;;;;;;11.70;99.90;;;;;;1873375;75;20136;-73
2021/10/05 05:09:40;;;;;;;;;;;11.90;99.90;;;;;;1881940;75;20261;-72
2021/10/05 05:12:07;;;;;;;;;;;12.00;99.90;;;;;;1872626;75;20178;-72
2021/10/05 05:14:34;;;;;;;;;;;12.00;99.90;;;;;;1879805;75;20204;-72
2021/10/05 05:17:01;;;;;;;;;;;12.00;99.90;;;;;;1873547;75;20165;-71
2021/10/05 05:19:28;;;;;;;;;;;12.00;99.90;;;;;;1872210;75;20152;-71
2021/10/05 05:21:59;;;;;;;;;;;12.00;99.90;;;;;;1872362;75;20156;-72
2021/10/05 05:24:23;;;;;;;;;;;12.10;99.90;;;;;;1868947;75;20140;-72
2021/10/05 05:26:50;;;;;;;;;;;12.10;99.90;;;;;;1869797;75;20217;-72
2021/10/05 05:29:17;;;;;;;;;;;12.00;99.90;;;;;;1872392;75;20461;-71
2021/10/05 05:31:44;;;;;;;;;;;12.10;99.90;;;;;;1869193;75;20122;-72
2021/10/05 05:34:11;;;;;;;;;;;12.10;99.90;;;;;;1877114;75;20185;-73
2021/10/05 05:36:38;;;;;;;;;;;12.00;99.90;;;;;;1876768;75;20218;-72
2021/10/05 05:39:06;;;;;;;;;;;12.00;99.90;;;;;;1873247;75;20186;-72
2021/10/05 05:41:32;;;;;;;;;;;12.00;99.90;;;;;;1874467;75;20486;-73
2021/10/05 05:43:59;;;;;;;;;;;12.10;99.90;;;;;;1872814;75;20202;-72
2021/10/05 05:46:26;;;;;;;;;;;12.10;99.90;;;;;;1872566;75;21050;-72
2021/10/05 05:48:53;;;;;;;;;;;12.10;99.90;;;;;;1871719;75;20189;-73
2021/10/05 05:51:20;;;;;;;;;;;12.10;99.90;;;;;;1875624;75;20461;-80
2021/10/05 05:53:47;;;;;;;;;;;12.20;99.90;;;;;;1875909;75;20255;-70
2021/10/05 05:56:14;;;;;;;;;;;12.10;99.90;;;;;;1884682;75;20221;-75
2021/10/05 05:58:41;;;;;;;;;;;12.10;99.90;;;;;;1876611;75;20165;-81
2021/10/05 06:01:08;;;;;;;;;;;12.10;99.90;;;;;;1877640;75;20156;-69
2021/10/05 06:03:34;;;;;;;;;;;12.20;99.90;;;;;;1870362;75;20268;-70
2021/10/05 06:06:01;;;;;;;;;;;12.20;99.90;;;;;;1871556;75;20479;-71
2021/10/05 06:08:28;;;;;;;;;;;12.20;99.90;;;;;;1873817;75;20231;-69
2021/10/05 06:10:55;;;;;;;;;;;12.10;99.90;;;;;;1878677;75;20177;-70
2021/10/05 06:13:22;;;;;;;;;;;12.20;99.90;;;;;;1875831;75;20448;-70
2021/10/05 06:15:49;;;;;;;;;;;12.30;99.90;;;;;;1872063;75;20255;-71
2021/10/05 06:18:16;;;;;;;;;;;12.30;99.90;;;;;;1869327;73;20453;-71
2021/10/05 06:20:43;;;;;;;;;;;12.30;99.90;;;;;;1873944;75;20220;-71
2021/10/05 06:23:09;;;;;;;;;;;12.30;99.90;;;;;;1874216;75;20219;-71
2021/10/05 06:25:40;;;;;;;;;;;12.20;99.90;;;;;;1873992;75;20191;-71
2021/10/05 06:28:05;;;;;;;;;;;12.20;99.90;;;;;;1867990;75;20252;-71
2021/10/05 06:30:31;;;;;;;;;;;12.20;99.90;;;;;;1875067;75;20184;-71
2021/10/05 06:32:58;;;;;;;;;;;12.20;99.90;;;;;;1879037;75;20163;-71
2021/10/05 06:35:28;;;;;;;;;;;12.20;99.90;;;;;;1870441;75;20718;-72
2021/10/05 06:37:55;;;;;;;;;;;12.30;99.90;;;;;;1873298;75;20129;-71
2021/10/05 06:40:23;;;;;;;;;;;12.30;99.90;;;;;;1872520;75;20639;-72
2021/10/05 06:42:49;;;;;;;;;;;12.30;99.90;;;;;;1884085;75;20221;-71
2021/10/05 06:45:16;;;;;;;;;;;12.30;99.90;;;;;;1876911;75;20179;-71
2021/10/05 06:47:44;;;;;;;;;;;12.30;99.90;;;;;;1885568;75;20402;-72
2021/10/05 06:50:11;;;;;;;;;;;12.40;99.90;;;;;;1876583;75;20126;-71
2021/10/05 06:52:38;;;;;;;;;;;12.40;99.90;;;;;;1874520;75;20507;-72
2021/10/05 06:55:05;;;;;;;;;;;12.40;99.90;;;;;;1877070;75;20195;-71
2021/10/05 06:57:32;;;;;;;;;;;12.40;99.90;;;;;;1878228;75;20156;-71
2021/10/05 06:59:59;;;;;;;;;;;12.40;99.90;;;;;;1875027;72;20189;-72
2021/10/05 07:02:25;;;;;;;;;;;12.50;99.90;;;;;;1873052;76;20217;-72
2021/10/05 07:04:52;;;;;;;;;;;12.50;99.90;;;;;;1873189;75;20205;-72
2021/10/05 07:07:19;;;;;;;;;;;12.50;99.90;;;;;;1867727;76;20208;-72
2021/10/05 07:09:46;;;;;;;;;;;12.50;99.90;;;;;;1872192;75;20117;-72
2021/10/05 07:12:13;;;;;;;;;;;12.60;99.90;;;;;;1868240;76;20484;-72
2021/10/05 07:14:39;;;;;;;;;;;12.50;99.90;;;;;;1871816;75;20126;-72
2021/10/05 07:17:06;;;;;;;;;;;12.50;99.90;;;;;;1870711;75;20894;-72
2021/10/05 07:19:33;;;;;;;;;;;12.60;99.90;;;;;;1872886;75;20173;-72
2021/10/05 07:22:00;;;;;;;;;;;12.60;99.90;;;;;;1868005;76;20196;-72
2021/10/05 07:24:27;;;;;;;;;;;12.60;99.90;;;;;;1871018;75;20468;-72
2021/10/05 07:26:54;;;;;;;;;;;12.70;99.90;;;;;;1873172;75;20174;-72
2021/10/05 07:29:20;;;;;;;;;;;12.70;99.90;;;;;;1871644;76;20814;-72
2021/10/05 07:31:47;;;;;;;;;;;12.70;99.90;;;;;;1873922;75;20184;-72
2021/10/05 07:34:14;;;;;;;;;;;12.70;99.90;;;;;;1872080;75;20392;-72
2021/10/05 07:36:41;;;;;;;;;;;12.70;99.90;;;;;;1874229;75;20187;-72
2021/10/05 07:39:08;;;;;;;;;;;12.70;99.90;;;;;;1868368;75;20208;-72
2021/10/05 07:41:35;;;;;;;;;;;12.80;99.90;;;;;;1871431;75;20522;-72
2021/10/05 07:44:02;;;;;;;;;;;12.80;99.90;;;;;;1865557;76;20187;-72
2021/10/05 07:46:28;;;;;;;;;;;12.70;99.90;;;;;;1865453;75;20414;-72
2021/10/05 07:48:55;;;;;;;;;;;12.80;99.90;;;;;;1867894;76;20249;-72
2021/10/05 07:51:22;;;;;;;;;;;12.80;99.90;;;;;;1870355;75;20205;-72
2021/10/05 07:53:49;;;;;;;;;;;12.80;99.90;;;;;;1872904;75;20122;-72
2021/10/05 07:56:17;;;;;;;;;;;12.90;99.90;;;;;;1866500;76;20175;-72
2021/10/05 07:58:44;;;;;;;;;;;12.90;99.90;;;;;;1876319;75;20273;-72
2021/10/05 08:01:10;;;;;;;;;;;12.90;99.90;;;;;;1874568;75;20211;-72
2021/10/05 08:03:37;;;;;;;;;;;12.90;99.90;;;;;;1870740;76;20404;-72
2021/10/05 08:06:04;;;;;;;;;;;12.90;99.90;;;;;;1868445;76;20158;-72
2021/10/05 08:08:31;;;;;;;;;;;12.90;99.90;;;;;;1871631;75;20368;-72
2021/10/05 08:10:57;;;;;;;;;;;12.90;99.90;;;;;;1872156;76;20154;-72
2021/10/05 08:13:24;;;;;;;;;;;12.90;99.90;;;;;;1872764;76;20481;-72
2021/10/05 08:15:52;;;;;;;;;;;13.00;99.90;;;;;;1873088;76;20142;-72
2021/10/05 08:18:18;;;;;;;;;;;13.00;99.90;;;;;;1877230;75;20199;-72
2021/10/05 08:20:46;;;;;;;;;;;13.10;99.90;;;;;;1869664;76;20159;-72
2021/10/05 08:23:13;;;;;;;;;;;13.10;99.90;;;;;;1867110;75;20124;-72
2021/10/05 08:25:43;;;;;;;;;;;13.10;99.90;;;;;;1867473;76;20164;-72
2021/10/05 08:28:10;;;;;;;;;;;13.10;99.90;;;;;;1872065;75;20402;-72
2021/10/05 08:30:37;;;;;;;;;;;13.20;99.90;;;;;;1873711;76;20387;-72
2021/10/05 08:33:04;;;;;;;;;;;13.20;99.90;;;;;;1873486;75;20182;-72
2021/10/05 08:35:31;;;;;;;;;;;13.30;99.90;;;;;;1870884;75;20181;-72
2021/10/05 08:37:58;;;;;;;;;;;13.40;99.90;;;;;;1869595;76;20126;-73
2021/10/05 08:40:25;;;;;;;;;;;13.50;99.90;;;;;;1872520;75;20175;-73
2021/10/05 08:42:52;;;;;;;;;;;13.40;99.90;;;;;;1870810;76;20212;-73
2021/10/05 08:45:20;;;;;;;;;;;13.50;99.90;;;;;;1871498;76;20180;-72
2021/10/05 08:47:48;;;;;;;;;;;13.50;99.90;;;;;;1865764;76;20339;-72
2021/10/05 08:50:16;;;;;;;;;;;13.60;99.90;;;;;;1874250;76;20188;-72
2021/10/05 08:52:44;;;;;;;;;;;13.60;99.90;;;;;;1870718;75;20589;-72
2021/10/05 08:55:12;;;;;;;;;;;13.60;99.90;;;;;;1870908;75;20173;-72
2021/10/05 08:57:39;;;;;;;;;;;13.60;99.90;;;;;;1873551;76;20296;-72
2021/10/05 09:00:07;;;;;;;;;;;13.60;99.90;;;;;;1870956;76;20173;-72
2021/10/05 09:02:44;;;;;;;;;;;13.70;99.90;;;;;;1874127;75;20189;-72
2021/10/05 09:05:15;;;;;;;;;;;13.60;99.90;;;;;;1873150;75;20578;-72
2021/10/05 09:07:47;;;;;;;;;;;13.70;99.90;;;;;;1872804;76;20175;-72
2021/10/05 09:10:13;;;;;;;;;;;13.80;99.90;;;;;;1870472;76;20445;-71
2021/10/05 09:12:40;;;;;;;;;;;13.80;99.90;;;;;;1870111;75;20180;-71
2021/10/05 09:15:09;;;;;;;;;;;13.80;99.90;;;;;;1879301;75;21336;-70
2021/10/05 09:17:36;;;;;;;;;;;13.80;99.90;;;;;;1873097;75;20177;-71
2021/10/05 09:20:04;;;;;;;;;;;13.90;99.90;;;;;;1877876;75;20179;-70
2021/10/05 09:22:31;;;;;;;;;;;13.80;99.90;;;;;;1871691;75;20537;-71
2021/10/05 09:24:58;;;;;;;;;;;13.90;99.90;;;;;;1876574;75;20206;-70
2021/10/05 09:27:26;;;;;;;;;;;14.00;99.90;;;;;;1875561;75;20148;-73
2021/10/05 09:29:53;;;;;;;;;;;13.90;99.90;;;;;;1875467;76;20152;-69
2021/10/05 09:32:21;;;;;;;;;;;14.00;99.90;;;;;;1877234;75;20261;-72
2021/10/05 09:34:56;;;;;;;;;;;14.00;99.90;;;;;;1878946;76;20170;-69
2021/10/05 09:37:25;;;;;;;;;;;14.00;99.90;;;;;;1870973;76;20128;-69
2021/10/05 09:39:53;;;;;;;;;;;14.00;99.90;;;;;;1871896;76;20163;-69
2021/10/05 09:42:21;;;;;;;;;;;14.00;99.90;;;;;;1875546;75;20172;-69
2021/10/05 09:44:52;;;;;;;;;;;14.10;99.90;;;;;;1877577;75;20185;-69
2021/10/05 09:47:20;;;;;;;;;;;14.10;99.90;;;;;;1874693;75;20410;-69
2021/10/05 09:49:47;;;;;;;;;;;14.00;99.90;;;;;;1868166;75;20109;-68
2021/10/05 09:52:14;;;;;;;;;;;14.10;99.90;;;;;;1869382;76;20277;-68
2021/10/05 09:54:41;;;;;;;;;;;14.10;99.90;;;;;;1875059;75;20170;-68
2021/10/05 09:57:08;;;;;;;;;;;14.00;99.90;;;;;;1871122;76;20119;-68
2021/10/05 09:59:34;;;;;;;;;;;14.10;99.90;;;;;;1873864;75;20184;-68
2021/10/05 10:02:02;;;;;;;;;;;14.20;99.90;;;;;;1866831;76;20163;-69
2021/10/05 10:04:30;;;;;;;;;;;14.10;99.90;;;;;;1869268;75;20243;-69
2021/10/05 10:06:57;;;;;;;;;;;14.20;99.90;;;;;;1870351;76;20216;-69
2021/10/05 10:09:24;;;;;;;;;;;14.30;99.90;;;;;;1870977;76;20187;-68
2021/10/05 10:11:51;;;;;;;;;;;14.20;99.90;;;;;;1873689;76;20197;-69
2021/10/05 10:14:19;;;;;;;;;;;14.30;99.90;;;;;;1870654;76;20450;-68
2021/10/05 10:16:48;;;;;;;;;;;14.30;99.90;;;;;;1873346;76;20264;-68
2021/10/05 10:19:16;;;;;;;;;;;14.40;99.90;;;;;;1874080;76;20421;-68
2021/10/05 10:21:43;;;;;;;;;;;14.40;99.90;;;;;;1872599;75;20164;-69
2021/10/05 10:24:15;;;;;;;;;;;14.40;99.90;;;;;;1868830;75;20476;-69
2021/10/05 10:26:47;;;;;;;;;;;14.40;99.90;;;;;;1874378;76;20213;-68
2021/10/05 10:29:15;;;;;;;;;;;14.50;99.90;;;;;;1875371;76;20125;-68
2021/10/05 10:31:43;;;;;;;;;;;14.50;99.90;;;;;;1872413;76;20218;-68
2021/10/05 10:34:11;;;;;;;;;;;14.60;99.90;;;;;;1875103;75;20186;-69
2021/10/05 10:36:40;;;;;;;;;;;14.60;99.90;;;;;;1878321;75;20378;-68
2021/10/05 10:39:13;;;;;;;;;;;14.70;99.90;;;;;;1871840;75;20235;-68
2021/10/05 10:41:46;;;;;;;;;;;14.70;99.90;;;;;;1868602;76;20162;-68
2021/10/05 10:44:16;;;;;;;;;;;14.80;99.90;;;;;;1870504;75;20473;-68
2021/10/05 10:46:39;;;;;;;;;;;14.80;99.90;;;;;;1872171;74;20107;-69
2021/10/05 10:49:13;;;;;;;;;;;14.80;99.90;;;;;;1873630;75;20217;-69
2021/10/05 10:51:41;;;;;;;;;;;14.80;99.90;;;;;;1875917;75;20187;-69
2021/10/05 10:54:15;;;;;;;;;;;14.90;99.90;;;;;;1869521;75;20168;-69
2021/10/05 10:56:43;;;;;;;;;;;15.00;99.90;;;;;;1870529;76;20239;-68
2021/10/05 10:59:12;;;;;;;;;;;15.00;99.90;;;;;;1866499;76;20501;-69
2021/10/05 11:01:40;;;;;;;;;;;15.10;99.90;;;;;;1867009;76;20148;-69
2021/10/05 11:04:08;;;;;;;;;;;15.20;99.90;;;;;;1868581;75;20256;-69
2021/10/05 11:06:36;;;;;;;;;;;15.30;99.90;;;;;;1870184;76;20153;-69
2021/10/05 11:09:03;;;;;;;;;;;15.30;99.90;;;;;;1871741;76;20170;-69
2021/10/05 11:11:34;;;;;;;;;;;15.30;99.90;;;;;;1873890;75;20223;-69
2021/10/05 11:14:01;;;;;;;;;;;15.40;99.90;;;;;;1875583;76;20178;-68
2021/10/05 11:16:29;;;;;;;;;;;15.30;99.90;;;;;;1878307;75;20982;-68
2021/10/05 11:19:10;;;;;;;;;;;15.40;99.90;;;;;;1868295;76;20451;-68
2021/10/05 11:21:38;;;;;;;;;;;15.30;99.90;;;;;;1870212;76;20154;-69
2021/10/05 11:24:06;;;;;;;;;;;15.30;99.90;;;;;;1873826;75;20377;-68
2021/10/05 11:26:33;;;;;;;;;;;15.30;99.90;;;;;;1867577;75;20493;-69
2021/10/05 11:29:02;;;;;;;;;;;15.40;99.90;;;;;;1867289;75;21035;-69
2021/10/05 11:31:30;;;;;;;;;;;15.40;99.90;;;;;;1863607;76;20174;-69
2021/10/05 11:34:04;;;;;;;;;;;15.40;99.90;;;;;;1869429;76;20442;-71
2021/10/05 11:36:32;;;;;;;;;;;15.50;99.90;;;;;;1867771;76;20166;-68
2021/10/05 11:38:59;;;;;;;;;;;15.50;99.90;;;;;;1871387;75;20193;-69
2021/10/05 11:41:42;;;;;;;;;;;15.50;99.90;;;;;;1867358;75;20329;-69
2021/10/05 11:44:17;;;;;;;;;;;15.50;99.90;;;;;;1866183;75;20181;-68
2021/10/05 11:46:58;;;;;;;;;;;15.40;99.90;;;;;;1868464;76;20126;-69
2021/10/05 11:49:26;;;;;;;;;;;15.40;99.90;;;;;;1870485;76;20160;-69
2021/10/05 11:51:54;;;;;;;;;;;15.30;99.90;;;;;;1866971;76;20196;-68
2021/10/05 11:54:22;;;;;;;;;;;15.40;99.90;;;;;;1869726;76;20187;-69
2021/10/05 11:56:49;;;;;;;;;;;15.50;99.90;;;;;;1866947;76;20207;-68
2021/10/05 11:59:24;;;;;;;;;;;15.40;99.90;;;;;;1869149;76;20115;-68
2021/10/05 12:01:56;;;;;;;;;;;15.40;99.90;;;;;;1871232;76;20258;-68
2021/10/05 12:04:21;;;;;;;;;;;15.50;99.90;;;;;;1865965;75;20172;-69
2021/10/05 12:06:52;;;;;;;;;;;15.50;99.90;;;;;;1868750;75;20174;-68
2021/10/05 12:09:24;;;;;;;;;;;15.40;99.90;;;;;;1867687;76;20157;-69
2021/10/05 12:11:48;;;;;;;;;;;15.50;99.90;;;;;;1864837;75;20154;-69
2021/10/05 12:14:16;;;;;;;;;;;15.50;99.90;;;;;;1867319;76;20178;-69
2021/10/05 12:16:44;;;;;;;;;;;15.40;99.90;;;;;;1868453;75;20252;-69
2021/10/05 12:19:13;;;;;;;;;;;15.40;99.90;;;;;;1862281;76;20239;-69
2021/10/05 12:21:41;;;;;;;;;;;15.40;99.90;;;;;;1867866;76;20205;-69
2021/10/05 12:24:08;;;;;;;;;;;15.40;99.90;;;;;;1864962;76;21175;-69
2021/10/05 12:26:35;;;;;;;;;;;15.40;99.90;;;;;;1865322;75;20117;-69
2021/10/05 12:29:10;;;;;;;;;;;15.40;99.90;;;;;;1861709;76;20168;-68
2021/10/05 12:31:34;;;;;;;;;;;15.50;99.90;;;;;;1866980;75;20589;-68
2021/10/05 12:34:03;;;;;;;;;;;15.50;99.90;;;;;;1865494;76;20669;-68
2021/10/05 12:36:31;;;;;;;;;;;15.50;99.90;;;;;;1869866;76;20174;-69
2021/10/05 12:39:02;;;;;;;;;;;15.50;99.90;;;;;;1870121;76;20179;-68
2021/10/05 12:41:28;;;;;;;;;;;15.60;99.90;;;;;;1869024;75;20180;-68
2021/10/05 12:43:55;;;;;;;;;;;15.70;99.90;;;;;;1869869;76;20393;-68
2021/10/05 12:46:23;;;;;;;;;;;15.70;99.90;;;;;;1866979;76;20184;-68
2021/10/05 12:48:51;;;;;;;;;;;15.70;99.90;;;;;;1868299;76;20204;-68
2021/10/05 12:51:22;;;;;;;;;;;15.80;99.90;;;;;;1869316;75;20259;-68
2021/10/05 12:53:50;;;;;;;;;;;15.80;99.90;;;;;;1867214;76;20179;-68
2021/10/05 12:56:20;;;;;;;;;;;15.90;99.90;;;;;;1867655;76;20202;-69
2021/10/05 12:58:46;;;;;;;;;;;16.00;99.90;;;;;;1868906;76;20252;-68
2021/10/05 13:01:14;;;;;;;;;;;16.10;99.90;;;;;;1867887;76;20451;-68
2021/10/05 13:03:41;;;;;;;;;;;16.10;99.90;;;;;;1870031;76;20126;-69
2021/10/05 13:06:08;;;;;;;;;;;16.40;99.90;;;;;;1872661;76;20764;-71
2021/10/05 13:08:34;;;;;;;;;;;16.60;99.90;;;;;;1871227;76;20164;-69
2021/10/05 13:11:01;;;;;;;;;;;16.60;99.90;;;;;;1867663;75;20169;-69
2021/10/05 13:13:28;;;;;;;;;;;16.60;99.90;;;;;;1866768;76;20148;-69
2021/10/05 13:15:56;;;;;;;;;;;16.60;99.90;;;;;;1870036;76;20891;-69
2021/10/05 13:18:23;;;;;;;;;;;16.70;99.90;;;;;;1870670;76;20467;-69
2021/10/05 13:20:50;;;;;;;;;;;16.80;99.90;;;;;;1872339;76;20134;-69
2021/10/05 13:23:20;;;;;;;;;;;16.90;99.90;;;;;;1872668;76;20180;-69
2021/10/05 13:25:47;;;;;;;;;;;17.10;99.90;;;;;;1867815;75;20117;-69
2021/10/05 13:28:14;;;;;;;;;;;17.30;99.90;;;;;;1867940;76;20156;-69
2021/10/05 13:30:41;;;;;;;;;;;17.40;99.90;;;;;;1872113;75;20169;-70
2021/10/05 13:33:08;;;;;;;;;;;17.60;99.90;;;;;;1864774;76;20175;-69
2021/10/05 13:35:34;;;;;;;;;;;17.60;99.90;;;;;;1864366;75;20256;-69
2021/10/05 13:38:01;;;;;;;;;;;17.30;99.90;;;;;;1870910;76;20154;-69
2021/10/05 13:40:28;;;;;;;;;;;17.10;99.90;;;;;;1866269;75;20111;-69
2021/10/05 13:42:55;;;;;;;;;;;17.30;99.90;;;;;;1863550;75;20145;-69
2021/10/05 13:45:22;;;;;;;;;;;17.50;99.90;;;;;;1866832;76;20243;-69
2021/10/05 13:47:49;;;;;;;;;;;17.50;99.90;;;;;;1870815;76;20218;-69
2021/10/05 13:50:16;;;;;;;;;;;17.60;99.90;;;;;;1871226;76;20128;-69
2021/10/05 13:52:43;;;;;;;;;;;17.70;99.90;;;;;;1870314;76;20214;-69
2021/10/05 13:55:10;;;;;;;;;;;17.80;99.90;;;;;;1869442;76;20486;-69
2021/10/05 13:57:36;;;;;;;;;;;17.80;99.90;;;;;;1870265;76;20213;-69
2021/10/05 14:00:04;;;;;;;;;;;17.80;99.90;;;;;;1867416;76;20449;-69
2021/10/05 14:02:31;;;;;;;;;;;17.80;99.90;;;;;;1870544;76;20227;-69
2021/10/05 14:04:58;;;;;;;;;;;17.70;99.90;;;;;;1868506;75;20240;-69
2021/10/05 14:07:25;;;;;;;;;;;17.70;99.90;;;;;;1869374;76;20122;-69
2021/10/05 14:09:52;;;;;;;;;;;17.70;99.90;;;;;;1868579;76;20461;-69
2021/10/05 14:12:23;;;;;;;;;;;17.80;99.90;;;;;;1867804;75;20154;-69
2021/10/05 14:14:48;;;;;;;;;;;17.80;99.90;;;;;;1869157;76;20256;-69
2021/10/05 14:17:16;;;;;;;;;;;17.90;99.90;;;;;;1871388;76;20159;-69